Heinsburg, Canada
Current Conditions -  °F | °C
As of 12:00 PM on Sunday 21 Dec 2014 (Local Time) from CYLL Reporting Station
Light Snow Light Snow  
Wind Chill:   Ceiling: 200
Heat Index: 18°   Visibility: 0.5mi
Dew Point: 16°   Wind: 8mph
Humidity: 93%   Direction: 80°E
Pressure: 29.35"   Gusts: NA
Location:  53.77°N, 110.52°W
Report Text: CYLL 211900Z 08007KT 1/2SM -SN FZFG VV002 M08/M09 A2935 RMK FG8 SLP983
Loading
Personal Weather Stations






























Interactive Weather Map New forecast layout! Learn more

10-Day Weather Forecast

Advertisements
Track Severe Weather on mobile